sensor_id;sensor_type;location;lat;lon;timestamp;pressure;altitude;pressure_sealevel;temperature;humidity
56713;BME280;42589;45.536;9.032;2023-05-12T00:02:57;99311.88;;;42.95;15.35
56713;BME280;42589;45.536;9.032;2023-05-12T00:05:59;99307.19;;;43.44;15.49
56713;BME280;42589;45.536;9.032;2023-05-12T00:09:02;99306.22;;;42.92;15.86
56713;BME280;42589;45.536;9.032;2023-05-12T00:12:03;99303.88;;;41.84;16.88
56713;BME280;42589;45.536;9.032;2023-05-12T00:15:05;99301.97;;;40.80;18.01
56713;BME280;42589;45.536;9.032;2023-05-12T00:18:05;99297.59;;;41.87;17.28
56713;BME280;42589;45.536;9.032;2023-05-12T00:21:06;99298.09;;;42.49;16.48
56713;BME280;42589;45.536;9.032;2023-05-12T00:24:07;99297.25;;;42.45;16.85
56713;BME280;42589;45.536;9.032;2023-05-12T00:27:08;99296.00;;;41.89;17.07
56713;BME280;42589;45.536;9.032;2023-05-12T00:30:09;99298.66;;;42.62;16.70
56713;BME280;42589;45.536;9.032;2023-05-12T00:33:13;99296.09;;;44.02;15.25
56713;BME280;42589;45.536;9.032;2023-05-12T00:36:15;99287.09;;;42.33;16.82
56713;BME280;42589;45.536;9.032;2023-05-12T00:39:16;99288.34;;;42.36;16.76
56713;BME280;42589;45.536;9.032;2023-05-12T00:42:17;99288.50;;;42.20;17.33
56713;BME280;42589;45.536;9.032;2023-05-12T00:45:18;99284.38;;;42.10;16.71
56713;BME280;42589;45.536;9.032;2023-05-12T00:48:18;99282.97;;;41.97;17.06
56713;BME280;42589;45.536;9.032;2023-05-12T00:51:19;99284.47;;;42.17;16.63
56713;BME280;42589;45.536;9.032;2023-05-12T00:54:20;99286.63;;;41.32;17.31
56713;BME280;42589;45.536;9.032;2023-05-12T00:57:21;99273.06;;;41.31;17.63
56713;BME280;42589;45.536;9.032;2023-05-12T01:00:24;99268.13;;;40.07;18.70
56713;BME280;42589;45.536;9.032;2023-05-12T01:03:25;99273.56;;;40.55;17.69
56713;BME280;42589;45.536;9.032;2023-05-12T01:06:47;99272.44;;;42.13;17.45
56713;BME280;42589;45.536;9.032;2023-05-12T01:09:55;99274.44;;;41.63;17.64
56713;BME280;42589;45.536;9.032;2023-05-12T01:12:56;99269.78;;;41.94;16.82
56713;BME280;42589;45.536;9.032;2023-05-12T01:15:58;99273.56;;;42.09;17.07
56713;BME280;42589;45.536;9.032;2023-05-12T01:19:04;99269.53;;;41.80;17.84
56713;BME280;42589;45.536;9.032;2023-05-12T01:22:07;99267.81;;;42.25;16.61
56713;BME280;42589;45.536;9.032;2023-05-12T01:25:10;99263.16;;;41.33;17.02
56713;BME280;42589;45.536;9.032;2023-05-12T01:28:14;99264.44;;;42.12;17.40
56713;BME280;42589;45.536;9.032;2023-05-12T01:31:16;99255.16;;;41.32;17.55
56713;BME280;42589;45.536;9.032;2023-05-12T01:34:17;99262.94;;;42.18;16.66
56713;BME280;42589;45.536;9.032;2023-05-12T01:37:18;99251.66;;;40.92;18.22
56713;BME280;42589;45.536;9.032;2023-05-12T01:40:19;99249.53;;;41.51;17.16
56713;BME280;42589;45.536;9.032;2023-05-12T01:43:20;99255.88;;;42.54;16.17
56713;BME280;42589;45.536;9.032;2023-05-12T01:46:20;99259.06;;;42.86;16.45
56713;BME280;42589;45.536;9.032;2023-05-12T01:49:21;99255.22;;;43.02;15.64
56713;BME280;42589;45.536;9.032;2023-05-12T01:52:22;99260.25;;;42.85;16.21
56713;BME280;42589;45.536;9.032;2023-05-12T01:55:24;99259.47;;;42.88;16.02
56713;BME280;42589;45.536;9.032;2023-05-12T01:58:24;99253.66;;;43.04;15.76
56713;BME280;42589;45.536;9.032;2023-05-12T02:01:25;99259.28;;;43.08;16.20
56713;BME280;42589;45.536;9.032;2023-05-12T02:04:30;99270.19;;;44.13;16.00
56713;BME280;42589;45.536;9.032;2023-05-12T02:07:31;99259.59;;;42.69;16.18
56713;BME280;42589;45.536;9.032;2023-05-12T02:10:32;99262.41;;;42.35;16.97
56713;BME280;42589;45.536;9.032;2023-05-12T02:13:32;99263.13;;;42.62;16.10
56713;BME280;42589;45.536;9.032;2023-05-12T02:16:34;99273.00;;;42.53;15.96
56713;BME280;42589;45.536;9.032;2023-05-12T02:19:34;99265.91;;;42.62;16.07
56713;BME280;42589;45.536;9.032;2023-05-12T02:22:35;99269.06;;;42.57;16.21
56713;BME280;42589;45.536;9.032;2023-05-12T02:25:36;99261.34;;;42.77;15.95
56713;BME280;42589;45.536;9.032;2023-05-12T02:28:36;99274.78;;;42.68;16.09
56713;BME280;42589;45.536;9.032;2023-05-12T02:31:38;99264.66;;;43.24;15.86
56713;BME280;42589;45.536;9.032;2023-05-12T02:34:39;99263.72;;;42.75;15.87
56713;BME280;42589;45.536;9.032;2023-05-12T02:37:40;99270.47;;;42.14;16.91
56713;BME280;42589;45.536;9.032;2023-05-12T02:40:41;99268.31;;;42.94;16.07
56713;BME280;42589;45.536;9.032;2023-05-12T02:43:42;99269.66;;;42.70;16.34
56713;BME280;42589;45.536;9.032;2023-05-12T02:46:43;99266.44;;;42.11;17.35
56713;BME280;42589;45.536;9.032;2023-05-12T02:49:43;99267.84;;;41.98;16.98
56713;BME280;42589;45.536;9.032;2023-05-12T02:52:44;99265.34;;;41.93;17.20
56713;BME280;42589;45.536;9.032;2023-05-12T02:55:45;99268.81;;;41.37;17.52
56713;BME280;42589;45.536;9.032;2023-05-12T02:58:45;99267.28;;;41.20;17.54
56713;BME280;42589;45.536;9.032;2023-05-12T03:01:46;99267.31;;;41.43;17.04
56713;BME280;42589;45.536;9.032;2023-05-12T03:04:46;99262.41;;;40.94;17.86
56713;BME280;42589;45.536;9.032;2023-05-12T03:07:47;99261.72;;;41.00;17.55
56713;BME280;42589;45.536;9.032;2023-05-12T03:10:48;99253.63;;;40.72;17.55
56713;BME280;42589;45.536;9.032;2023-05-12T03:13:49;99264.63;;;40.65;17.69
56713;BME280;42589;45.536;9.032;2023-05-12T03:16:50;99258.50;;;41.41;17.02
56713;BME280;42589;45.536;9.032;2023-05-12T03:19:51;99254.06;;;41.59;16.95
56713;BME280;42589;45.536;9.032;2023-05-12T03:22:51;99254.97;;;41.67;16.82
56713;BME280;42589;45.536;9.032;2023-05-12T03:25:52;99257.75;;;41.90;16.34
56713;BME280;42589;45.536;9.032;2023-05-12T03:28:53;99251.09;;;41.98;17.13
56713;BME280;42589;45.536;9.032;2023-05-12T03:31:54;99251.63;;;42.07;16.62
56713;BME280;42589;45.536;9.032;2023-05-12T03:34:55;99248.56;;;41.89;16.66
56713;BME280;42589;45.536;9.032;2023-05-12T03:37:57;99244.97;;;42.46;16.52
56713;BME280;42589;45.536;9.032;2023-05-12T03:41:05;99247.66;;;43.06;16.44
56713;BME280;42589;45.536;9.032;2023-05-12T03:44:10;99253.84;;;42.25;16.47
56713;BME280;42589;45.536;9.032;2023-05-12T03:47:12;99244.13;;;42.41;16.40
56713;BME280;42589;45.536;9.032;2023-05-12T03:50:12;99244.06;;;41.58;16.70
56713;BME280;42589;45.536;9.032;2023-05-12T03:53:13;99249.31;;;42.43;16.33
56713;BME280;42589;45.536;9.032;2023-05-12T03:56:14;99257.63;;;42.36;16.55
56713;BME280;42589;45.536;9.032;2023-05-12T03:59:14;99249.19;;;42.66;15.78
56713;BME280;42589;45.536;9.032;2023-05-12T04:02:16;99252.19;;;42.20;16.63
56713;BME280;42589;45.536;9.032;2023-05-12T04:05:16;99250.81;;;41.34;16.88
56713;BME280;42589;45.536;9.032;2023-05-12T04:08:17;99250.97;;;42.17;16.30
56713;BME280;42589;45.536;9.032;2023-05-12T04:11:18;99251.00;;;42.21;15.71
56713;BME280;42589;45.536;9.032;2023-05-12T04:14:19;99256.75;;;42.96;15.65
56713;BME280;42589;45.536;9.032;2023-05-12T04:17:20;99249.56;;;42.61;16.08
56713;BME280;42589;45.536;9.032;2023-05-12T04:20:22;99244.31;;;42.26;16.49
56713;BME280;42589;45.536;9.032;2023-05-12T04:23:23;99253.59;;;42.63;16.01
56713;BME280;42589;45.536;9.032;2023-05-12T04:26:23;99248.97;;;42.45;15.92
56713;BME280;42589;45.536;9.032;2023-05-12T04:29:26;99249.38;;;42.16;15.77
56713;BME280;42589;45.536;9.032;2023-05-12T04:32:30;99256.31;;;42.00;17.14
56713;BME280;42589;45.536;9.032;2023-05-12T04:35:30;99258.94;;;41.66;16.54
56713;BME280;42589;45.536;9.032;2023-05-12T04:38:32;99259.91;;;41.77;16.98
56713;BME280;42589;45.536;9.032;2023-05-12T04:41:33;99259.16;;;41.80;16.17
56713;BME280;42589;45.536;9.032;2023-05-12T04:44:33;99262.56;;;42.80;15.48
56713;BME280;42589;45.536;9.032;2023-05-12T04:47:34;99264.09;;;41.87;16.13
56713;BME280;42589;45.536;9.032;2023-05-12T04:50:35;99267.00;;;40.82;17.70
56713;BME280;42589;45.536;9.032;2023-05-12T04:53:39;99272.63;;;42.54;16.23
56713;BME280;42589;45.536;9.032;2023-05-12T04:56:42;99267.03;;;42.88;16.00
56713;BME280;42589;45.536;9.032;2023-05-12T04:59:43;99266.81;;;42.10;15.93
56713;BME280;42589;45.536;9.032;2023-05-12T05:02:44;99277.19;;;41.86;16.99
56713;BME280;42589;45.536;9.032;2023-05-12T05:05:45;99279.31;;;41.93;16.50
56713;BME280;42589;45.536;9.032;2023-05-12T05:08:45;99279.50;;;42.04;16.46
56713;BME280;42589;45.536;9.032;2023-05-12T05:11:46;99279.50;;;42.04;16.81
56713;BME280;42589;45.536;9.032;2023-05-12T05:14:47;99286.75;;;41.85;16.86
56713;BME280;42589;45.536;9.032;2023-05-12T05:17:48;99284.63;;;42.02;16.55
56713;BME280;42589;45.536;9.032;2023-05-12T05:20:49;99286.03;;;42.72;16.55
56713;BME280;42589;45.536;9.032;2023-05-12T05:23:50;99291.72;;;42.22;16.49
56713;BME280;42589;45.536;9.032;2023-05-12T05:26:51;99279.69;;;42.18;16.23
56713;BME280;42589;45.536;9.032;2023-05-12T05:29:52;99279.94;;;41.83;16.92
56713;BME280;42589;45.536;9.032;2023-05-12T05:32:54;99288.59;;;42.27;16.10
56713;BME280;42589;45.536;9.032;2023-05-12T05:35:54;99291.41;;;42.01;16.80
56713;BME280;42589;45.536;9.032;2023-05-12T05:38:55;99282.38;;;42.37;16.53
56713;BME280;42589;45.536;9.032;2023-05-12T05:42:05;99293.81;;;43.26;15.69
56713;BME280;42589;45.536;9.032;2023-05-12T05:45:09;99297.28;;;43.13;15.82
56713;BME280;42589;45.536;9.032;2023-05-12T05:48:09;99297.72;;;43.15;15.80
56713;BME280;42589;45.536;9.032;2023-05-12T05:51:10;99303.06;;;41.37;16.96
56713;BME280;42589;45.536;9.032;2023-05-12T05:54:10;99296.97;;;41.32;16.89
56713;BME280;42589;45.536;9.032;2023-05-12T05:57:11;99294.09;;;41.47;16.53
56713;BME280;42589;45.536;9.032;2023-05-12T06:00:13;99301.00;;;40.92;17.84
56713;BME280;42589;45.536;9.032;2023-05-12T06:03:14;99293.66;;;40.64;17.86
56713;BME280;42589;45.536;9.032;2023-05-12T06:06:14;99303.28;;;41.48;17.20
56713;BME280;42589;45.536;9.032;2023-05-12T06:09:15;99300.88;;;42.49;16.89
56713;BME280;42589;45.536;9.032;2023-05-12T06:12:16;99312.50;;;42.51;16.35
56713;BME280;42589;45.536;9.032;2023-05-12T06:15:17;99305.44;;;42.95;16.06
56713;BME280;42589;45.536;9.032;2023-05-12T06:18:18;99314.25;;;42.63;16.56
56713;BME280;42589;45.536;9.032;2023-05-12T06:21:18;99315.00;;;42.60;16.94
56713;BME280;42589;45.536;9.032;2023-05-12T06:24:19;99315.50;;;41.63;16.94
56713;BME280;42589;45.536;9.032;2023-05-12T06:27:19;99319.78;;;42.29;16.70
56713;BME280;42589;45.536;9.032;2023-05-12T06:30:20;99315.63;;;42.76;16.71
56713;BME280;42589;45.536;9.032;2023-05-12T06:33:22;99325.19;;;42.75;16.66
56713;BME280;42589;45.536;9.032;2023-05-12T06:36:24;99328.50;;;42.84;15.64
56713;BME280;42589;45.536;9.032;2023-05-12T06:39:25;99324.56;;;42.29;17.25
56713;BME280;42589;45.536;9.032;2023-05-12T06:42:25;99321.53;;;40.83;17.67
56713;BME280;42589;45.536;9.032;2023-05-12T06:45:26;99329.28;;;42.85;15.70
56713;BME280;42589;45.536;9.032;2023-05-12T06:48:27;99335.16;;;42.19;16.72
56713;BME280;42589;45.536;9.032;2023-05-12T06:51:28;99337.75;;;42.32;16.64
56713;BME280;42589;45.536;9.032;2023-05-12T06:54:29;99334.91;;;43.19;15.53
56713;BME280;42589;45.536;9.032;2023-05-12T06:57:30;99332.81;;;42.78;15.93
56713;BME280;42589;45.536;9.032;2023-05-12T07:00:31;99333.38;;;41.85;16.40
56713;BME280;42589;45.536;9.032;2023-05-12T07:03:32;99331.03;;;42.97;16.10
56713;BME280;42589;45.536;9.032;2023-05-12T07:06:32;99337.22;;;41.77;16.69
56713;BME280;42589;45.536;9.032;2023-05-12T07:09:34;99325.78;;;40.42;17.83
56713;BME280;42589;45.536;9.032;2023-05-12T07:12:36;99330.78;;;41.07;17.10
56713;BME280;42589;45.536;9.032;2023-05-12T07:15:41;99328.88;;;43.17;15.92
56713;BME280;42589;45.536;9.032;2023-05-12T07:18:45;99328.22;;;44.19;14.80
56713;BME280;42589;45.536;9.032;2023-05-12T07:21:46;99315.25;;;41.29;16.71
56713;BME280;42589;45.536;9.032;2023-05-12T07:24:47;99334.47;;;43.54;15.13
56713;BME280;42589;45.536;9.032;2023-05-12T07:27:47;99332.69;;;42.14;16.52
56713;BME280;42589;45.536;9.032;2023-05-12T07:30:49;99330.59;;;42.34;15.85
56713;BME280;42589;45.536;9.032;2023-05-12T07:33:50;99333.34;;;41.16;16.91
56713;BME280;42589;45.536;9.032;2023-05-12T07:36:55;99333.50;;;43.02;15.62
56713;BME280;42589;45.536;9.032;2023-05-12T07:39:57;99344.25;;;44.92;14.44
56713;BME280;42589;45.536;9.032;2023-05-12T07:42:58;99338.78;;;41.74;17.31
56713;BME280;42589;45.536;9.032;2023-05-12T07:45:59;99346.00;;;43.49;14.76
56713;BME280;42589;45.536;9.032;2023-05-12T07:49:00;99337.78;;;43.67;15.25
56713;BME280;42589;45.536;9.032;2023-05-12T07:52:01;99345.16;;;43.45;15.71
56713;BME280;42589;45.536;9.032;2023-05-12T07:55:02;99347.09;;;43.37;15.44
56713;BME280;42589;45.536;9.032;2023-05-12T07:58:03;99349.44;;;43.72;14.92
56713;BME280;42589;45.536;9.032;2023-05-12T08:01:04;99342.78;;;42.23;16.84
56713;BME280;42589;45.536;9.032;2023-05-12T08:04:05;99346.97;;;44.70;14.67
56713;BME280;42589;45.536;9.032;2023-05-12T08:07:06;99345.84;;;42.40;16.46
56713;BME280;42589;45.536;9.032;2023-05-12T08:10:08;99353.41;;;44.82;14.75
56713;BME280;42589;45.536;9.032;2023-05-12T08:13:10;99345.22;;;44.48;14.97
56713;BME280;42589;45.536;9.032;2023-05-12T08:16:11;99344.78;;;45.40;14.25
56713;BME280;42589;45.536;9.032;2023-05-12T08:19:12;99350.47;;;44.57;14.48
56713;BME280;42589;45.536;9.032;2023-05-12T08:22:13;99355.16;;;45.19;14.93
56713;BME280;42589;45.536;9.032;2023-05-12T08:25:13;99355.59;;;45.24;14.25
56713;BME280;42589;45.536;9.032;2023-05-12T08:28:14;99357.84;;;44.86;14.46
56713;BME280;42589;45.536;9.032;2023-05-12T08:31:14;99352.66;;;43.74;14.37
56713;BME280;42589;45.536;9.032;2023-05-12T08:34:15;99353.81;;;44.18;14.50
56713;BME280;42589;45.536;9.032;2023-05-12T08:37:16;99361.44;;;44.87;14.13
56713;BME280;42589;45.536;9.032;2023-05-12T08:40:21;99360.09;;;43.22;15.32
56713;BME280;42589;45.536;9.032;2023-05-12T08:43:32;99357.75;;;43.62;15.14
56713;BME280;42589;45.536;9.032;2023-05-12T08:46:35;99363.31;;;46.10;13.39
56713;BME280;42589;45.536;9.032;2023-05-12T08:49:38;99366.63;;;44.81;14.41
56713;BME280;42589;45.536;9.032;2023-05-12T08:52:39;99370.84;;;45.45;14.11
56713;BME280;42589;45.536;9.032;2023-05-12T08:55:40;99371.06;;;44.27;14.19
56713;BME280;42589;45.536;9.032;2023-05-12T08:58:44;99369.34;;;44.08;14.80
56713;BME280;42589;45.536;9.032;2023-05-12T09:01:45;99371.03;;;44.23;14.53
56713;BME280;42589;45.536;9.032;2023-05-12T09:04:51;99381.31;;;45.55;13.82
56713;BME280;42589;45.536;9.032;2023-05-12T09:07:52;99376.41;;;47.58;12.20
56713;BME280;42589;45.536;9.032;2023-05-12T09:10:57;99366.81;;;44.44;14.34
56713;BME280;42589;45.536;9.032;2023-05-12T09:14:03;99379.94;;;45.02;14.25
56713;BME280;42589;45.536;9.032;2023-05-12T09:17:06;99367.56;;;43.89;15.37
56713;BME280;42589;45.536;9.032;2023-05-12T09:20:07;99372.78;;;45.26;14.06
56713;BME280;42589;45.536;9.032;2023-05-12T09:23:18;99375.31;;;47.44;12.61
56713;BME280;42589;45.536;9.032;2023-05-12T09:26:21;99375.09;;;44.96;14.01
56713;BME280;42589;45.536;9.032;2023-05-12T09:29:22;99379.75;;;45.97;13.07
56713;BME280;42589;45.536;9.032;2023-05-12T09:32:30;99371.69;;;46.42;13.09
56713;BME280;42589;45.536;9.032;2023-05-12T09:35:38;99374.44;;;46.56;13.38
56713;BME280;42589;45.536;9.032;2023-05-12T09:38:39;99372.03;;;46.62;13.34
56713;BME280;42589;45.536;9.032;2023-05-12T09:41:41;99372.44;;;47.55;12.26
56713;BME280;42589;45.536;9.032;2023-05-12T09:44:45;99374.13;;;48.39;11.84
56713;BME280;42589;45.536;9.032;2023-05-12T09:47:46;99364.91;;;47.38;12.21
56713;BME280;42589;45.536;9.032;2023-05-12T09:50:49;99372.72;;;47.05;12.92
56713;BME280;42589;45.536;9.032;2023-05-12T09:53:50;99362.31;;;46.91;13.27
56713;BME280;42589;45.536;9.032;2023-05-12T09:56:51;99362.72;;;47.63;12.48
56713;BME280;42589;45.536;9.032;2023-05-12T09:59:53;99361.38;;;47.19;12.32
56713;BME280;42589;45.536;9.032;2023-05-12T10:02:54;99366.44;;;45.47;13.78
56713;BME280;42589;45.536;9.032;2023-05-12T10:05:57;99362.84;;;47.49;12.82
56713;BME280;42589;45.536;9.032;2023-05-12T10:12:08;99367.78;;;48.31;11.97
56713;BME280;42589;45.536;9.032;2023-05-12T10:15:09;99366.00;;;45.20;14.49
56713;BME280;42589;45.536;9.032;2023-05-12T10:18:11;99372.94;;;45.87;14.25
56713;BME280;42589;45.536;9.032;2023-05-12T10:21:14;99357.25;;;47.38;12.98
56713;BME280;42589;45.536;9.032;2023-05-12T10:24:15;99367.50;;;47.66;12.51
56713;BME280;42589;45.536;9.032;2023-05-12T10:27:17;99364.94;;;49.03;11.80
56713;BME280;42589;45.536;9.032;2023-05-12T10:30:18;99369.88;;;48.96;11.96
56713;BME280;42589;45.536;9.032;2023-05-12T10:33:20;99358.66;;;48.58;12.11
56713;BME280;42589;45.536;9.032;2023-05-12T10:36:20;99354.91;;;47.22;13.13
56713;BME280;42589;45.536;9.032;2023-05-12T10:39:27;99358.50;;;47.89;12.56
56713;BME280;42589;45.536;9.032;2023-05-12T10:42:37;99354.75;;;47.51;12.02
56713;BME280;42589;45.536;9.032;2023-05-12T10:45:38;99340.31;;;41.91;15.63
56713;BME280;42589;45.536;9.032;2023-05-12T10:51:59;99365.84;;;47.76;12.00
56713;BME280;42589;45.536;9.032;2023-05-12T10:55:01;99347.00;;;47.66;12.23
56713;BME280;42589;45.536;9.032;2023-05-12T10:58:10;99353.09;;;48.51;11.21
56713;BME280;42589;45.536;9.032;2023-05-12T11:01:11;99337.53;;;46.54;12.58
56713;BME280;42589;45.536;9.032;2023-05-12T11:04:14;99349.38;;;47.12;12.28
56713;BME280;42589;45.536;9.032;2023-05-12T11:07:19;99350.44;;;47.36;11.53
56713;BME280;42589;45.536;9.032;2023-05-12T11:10:20;99337.38;;;44.09;12.95
56713;BME280;42589;45.536;9.032;2023-05-12T11:13:21;99338.75;;;47.41;10.68
56713;BME280;42589;45.536;9.032;2023-05-12T11:16:21;99341.06;;;48.43;11.16
56713;BME280;42589;45.536;9.032;2023-05-12T11:19:22;99349.66;;;49.32;10.40
56713;BME280;42589;45.536;9.032;2023-05-12T11:22:23;99347.16;;;49.07;10.99
56713;BME280;42589;45.536;9.032;2023-05-12T11:25:26;99348.19;;;49.23;10.19
56713;BME280;42589;45.536;9.032;2023-05-12T11:28:27;99346.19;;;48.18;10.91
56713;BME280;42589;45.536;9.032;2023-05-12T11:31:28;99353.91;;;49.70;10.07
56713;BME280;42589;45.536;9.032;2023-05-12T11:34:29;99345.19;;;49.61;10.18
56713;BME280;42589;45.536;9.032;2023-05-12T11:37:35;99341.19;;;48.70;10.95
56713;BME280;42589;45.536;9.032;2023-05-12T11:40:39;99347.59;;;49.86;10.29
56713;BME280;42589;45.536;9.032;2023-05-12T11:43:39;99351.50;;;48.84;10.56
56713;BME280;42589;45.536;9.032;2023-05-12T11:46:40;99348.31;;;48.44;11.32
56713;BME280;42589;45.536;9.032;2023-05-12T11:49:47;99339.16;;;47.92;11.45
56713;BME280;42589;45.536;9.032;2023-05-12T11:52:48;99340.84;;;46.02;13.01
56713;BME280;42589;45.536;9.032;2023-05-12T11:55:55;99342.31;;;48.01;12.13
56713;BME280;42589;45.536;9.032;2023-05-12T11:58:57;99339.81;;;46.88;12.54
56713;BME280;42589;45.536;9.032;2023-05-12T12:02:00;99336.31;;;46.69;12.32
56713;BME280;42589;45.536;9.032;2023-05-12T12:05:01;99346.63;;;46.90;11.96
56713;BME280;42589;45.536;9.032;2023-05-12T12:08:15;99350.25;;;46.87;12.42
56713;BME280;42589;45.536;9.032;2023-05-12T12:11:19;99355.28;;;45.65;13.55
56713;BME280;42589;45.536;9.032;2023-05-12T12:14:20;99342.88;;;43.54;15.26
56713;BME280;42589;45.536;9.032;2023-05-12T12:17:21;99344.75;;;43.43;14.69
56713;BME280;42589;45.536;9.032;2023-05-12T12:20:28;99348.13;;;44.07;15.34
56713;BME280;42589;45.536;9.032;2023-05-12T12:23:29;99349.94;;;44.33;15.09
56713;BME280;42589;45.536;9.032;2023-05-12T12:26:30;99340.56;;;39.63;19.23
56713;BME280;42589;45.536;9.032;2023-05-12T12:29:31;99333.09;;;39.08;20.36
56713;BME280;42589;45.536;9.032;2023-05-12T12:32:31;99330.81;;;38.32;20.41
56713;BME280;42589;45.536;9.032;2023-05-12T12:35:32;99340.47;;;38.75;20.11
56713;BME280;42589;45.536;9.032;2023-05-12T12:38:36;99336.03;;;41.32;18.17
56713;BME280;42589;45.536;9.032;2023-05-12T12:41:37;99357.13;;;43.08;16.60
56713;BME280;42589;45.536;9.032;2023-05-12T12:44:38;99365.88;;;41.73;17.56
56713;BME280;42589;45.536;9.032;2023-05-12T12:47:40;99371.94;;;42.52;15.95
56713;BME280;42589;45.536;9.032;2023-05-12T12:50:41;99370.56;;;41.89;16.19
56713;BME280;42589;45.536;9.032;2023-05-12T12:53:42;99386.91;;;42.93;15.15
56713;BME280;42589;45.536;9.032;2023-05-12T12:56:45;99378.94;;;40.88;16.27
56713;BME280;42589;45.536;9.032;2023-05-12T12:59:46;99362.81;;;40.11;17.48
56713;BME280;42589;45.536;9.032;2023-05-12T13:02:47;99367.44;;;41.71;17.77
56713;BME280;42589;45.536;9.032;2023-05-12T13:05:49;99387.22;;;43.52;14.88
56713;BME280;42589;45.536;9.032;2023-05-12T13:08:50;99375.84;;;42.70;15.44
56713;BME280;42589;45.536;9.032;2023-05-12T13:11:50;99373.78;;;40.71;16.52
56713;BME280;42589;45.536;9.032;2023-05-12T13:14:51;99373.09;;;40.23;17.39
56713;BME280;42589;45.536;9.032;2023-05-12T13:17:52;99369.69;;;42.61;15.41
56713;BME280;42589;45.536;9.032;2023-05-12T13:20:52;99363.41;;;43.31;14.93
56713;BME280;42589;45.536;9.032;2023-05-12T13:23:53;99364.25;;;43.02;15.68
56713;BME280;42589;45.536;9.032;2023-05-12T13:26:54;99367.41;;;43.30;15.31
56713;BME280;42589;45.536;9.032;2023-05-12T13:29:57;99373.91;;;43.45;14.95
56713;BME280;42589;45.536;9.032;2023-05-12T13:32:57;99381.50;;;43.82;14.55
56713;BME280;42589;45.536;9.032;2023-05-12T13:35:58;99397.22;;;45.11;13.58
56713;BME280;42589;45.536;9.032;2023-05-12T13:38:59;99389.00;;;45.90;13.02
56713;BME280;42589;45.536;9.032;2023-05-12T13:42:00;99376.41;;;43.91;14.86
56713;BME280;42589;45.536;9.032;2023-05-12T13:45:03;99381.50;;;44.96;14.70
56713;BME280;42589;45.536;9.032;2023-05-12T13:48:03;99386.47;;;42.11;16.36
56713;BME280;42589;45.536;9.032;2023-05-12T13:51:05;99377.94;;;43.48;15.14
56713;BME280;42589;45.536;9.032;2023-05-12T13:54:05;99370.72;;;43.80;15.17
56713;BME280;42589;45.536;9.032;2023-05-12T13:57:06;99374.34;;;43.88;14.78
56713;BME280;42589;45.536;9.032;2023-05-12T14:00:07;99364.63;;;43.71;15.42
56713;BME280;42589;45.536;9.032;2023-05-12T14:03:11;99380.75;;;44.37;15.15
56713;BME280;42589;45.536;9.032;2023-05-12T14:06:12;99367.03;;;41.92;17.15
56713;BME280;42589;45.536;9.032;2023-05-12T14:09:13;99376.78;;;43.49;15.45
56713;BME280;42589;45.536;9.032;2023-05-12T14:12:14;99385.47;;;43.77;15.46
56713;BME280;42589;45.536;9.032;2023-05-12T14:15:15;99381.91;;;43.09;15.71
56713;BME280;42589;45.536;9.032;2023-05-12T14:18:16;99372.75;;;43.87;15.48
56713;BME280;42589;45.536;9.032;2023-05-12T14:21:16;99381.34;;;42.40;16.32
56713;BME280;42589;45.536;9.032;2023-05-12T14:24:17;99379.81;;;44.74;14.98
56713;BME280;42589;45.536;9.032;2023-05-12T14:27:18;99376.16;;;44.69;14.59
56713;BME280;42589;45.536;9.032;2023-05-12T14:30:19;99386.50;;;43.99;15.75
56713;BME280;42589;45.536;9.032;2023-05-12T14:33:20;99380.28;;;43.79;15.28
56713;BME280;42589;45.536;9.032;2023-05-12T14:36:21;99384.97;;;41.91;16.05
56713;BME280;42589;45.536;9.032;2023-05-12T14:39:21;99387.91;;;44.31;14.79
56713;BME280;42589;45.536;9.032;2023-05-12T14:42:22;99378.28;;;43.39;15.07
56713;BME280;42589;45.536;9.032;2023-05-12T14:45:24;99378.00;;;43.51;14.46
56713;BME280;42589;45.536;9.032;2023-05-12T14:48:25;99378.84;;;43.52;14.67
56713;BME280;42589;45.536;9.032;2023-05-12T14:51:26;99381.69;;;45.46;13.59
56713;BME280;42589;45.536;9.032;2023-05-12T14:54:32;99385.84;;;44.20;14.87
56713;BME280;42589;45.536;9.032;2023-05-12T14:57:32;99381.53;;;43.86;14.48
56713;BME280;42589;45.536;9.032;2023-05-12T15:00:35;99392.91;;;44.62;14.06
56713;BME280;42589;45.536;9.032;2023-05-12T15:03:36;99385.53;;;45.06;13.82
56713;BME280;42589;45.536;9.032;2023-05-12T15:06:38;99392.47;;;43.57;14.38
56713;BME280;42589;45.536;9.032;2023-05-12T15:09:38;99395.41;;;44.75;13.77
56713;BME280;42589;45.536;9.032;2023-05-12T15:12:39;99399.47;;;44.88;14.22
56713;BME280;42589;45.536;9.032;2023-05-12T15:15:40;99399.69;;;45.42;13.37
56713;BME280;42589;45.536;9.032;2023-05-12T15:18:41;99403.03;;;44.74;14.17
56713;BME280;42589;45.536;9.032;2023-05-12T15:21:44;99414.09;;;47.82;12.67
56713;BME280;42589;45.536;9.032;2023-05-12T15:24:45;99411.44;;;46.08;12.93
56713;BME280;42589;45.536;9.032;2023-05-12T15:27:47;99421.56;;;44.97;14.27
56713;BME280;42589;45.536;9.032;2023-05-12T15:30:54;99411.38;;;46.76;12.59
56713;BME280;42589;45.536;9.032;2023-05-12T15:33:56;99422.91;;;45.28;13.98
56713;BME280;42589;45.536;9.032;2023-05-12T15:36:57;99409.47;;;44.23;14.92
56713;BME280;42589;45.536;9.032;2023-05-12T15:39:57;99420.25;;;43.80;14.73
56713;BME280;42589;45.536;9.032;2023-05-12T15:42:58;99418.75;;;44.97;14.12
56713;BME280;42589;45.536;9.032;2023-05-12T15:45:59;99409.22;;;43.94;13.97
56713;BME280;42589;45.536;9.032;2023-05-12T15:49:00;99407.97;;;45.02;14.39
56713;BME280;42589;45.536;9.032;2023-05-12T15:52:00;99403.03;;;44.78;14.07
56713;BME280;42589;45.536;9.032;2023-05-12T15:55:01;99403.91;;;44.89;14.65
56713;BME280;42589;45.536;9.032;2023-05-12T15:58:02;99395.66;;;43.96;15.46
56713;BME280;42589;45.536;9.032;2023-05-12T16:01:03;99403.59;;;45.08;14.67
56713;BME280;42589;45.536;9.032;2023-05-12T16:04:04;99408.97;;;45.60;14.57
56713;BME280;42589;45.536;9.032;2023-05-12T16:07:27;99397.38;;;45.61;13.72
56713;BME280;42589;45.536;9.032;2023-05-12T16:10:30;99388.38;;;44.40;15.03